sensor_id;sensor_type;location;lat;lon;timestamp;temperature;humidity
47521;DHT22;32291;52.010;4.446;2022-12-10T00:01:10;0.50;99.90
47521;DHT22;32291;52.010;4.446;2022-12-10T00:02:34;0.40;99.90
47521;DHT22;32291;52.010;4.446;2022-12-10T00:04:09;1.00;99.90
47521;DHT22;32291;52.010;4.446;2022-12-10T00:05:47;0.40;99.90
47521;DHT22;32291;52.010;4.446;2022-12-10T00:07:23;0.40;99.90
47521;DHT22;32291;52.010;4.446;2022-12-10T00:09:16;0.30;99.90
47521;DHT22;32291;52.010;4.446;2022-12-10T00:10:31;0.20;99.90
47521;DHT22;32291;52.010;4.446;2022-12-10T00:12:15;0.20;99.90
47521;DHT22;32291;52.010;4.446;2022-12-10T00:14:06;0.30;99.90
47521;DHT22;32291;52.010;4.446;2022-12-10T00:15:29;0.10;99.90
47521;DHT22;32291;52.010;4.446;2022-12-10T00:16:52;0.20;99.90
47521;DHT22;32291;52.010;4.446;2022-12-10T00:18:03;0.00;99.90
47521;DHT22;32291;52.010;4.446;2022-12-10T00:19:17;0.00;99.90
47521;DHT22;32291;52.010;4.446;2022-12-10T00:20:39;0.20;99.90
47521;DHT22;32291;52.010;4.446;2022-12-10T00:21:52;-0.20;99.90
47521;DHT22;32291;52.010;4.446;2022-12-10T00:23:16;-0.10;99.90
47521;DHT22;32291;52.010;4.446;2022-12-10T00:25:16;-0.20;99.90
47521;DHT22;32291;52.010;4.446;2022-12-10T00:26:36;-0.30;99.90
47521;DHT22;32291;52.010;4.446;2022-12-10T00:28:05;-0.30;99.90
47521;DHT22;32291;52.010;4.446;2022-12-10T00:30:08;-0.30;99.90
47521;DHT22;32291;52.010;4.446;2022-12-10T00:32:13;-0.30;99.90
47521;DHT22;32291;52.010;4.446;2022-12-10T00:34:01;-0.20;99.90
47521;DHT22;32291;52.010;4.446;2022-12-10T00:36:40;0.70;99.90
47521;DHT22;32291;52.010;4.446;2022-12-10T00:38:33;-0.30;99.90
47521;DHT22;32291;52.010;4.446;2022-12-10T00:40:34;-0.40;99.90
47521;DHT22;32291;52.010;4.446;2022-12-10T00:42:34;-0.40;99.90
47521;DHT22;32291;52.010;4.446;2022-12-10T00:44:35;-0.50;99.90
47521;DHT22;32291;52.010;4.446;2022-12-10T00:46:18;-0.60;99.90
47521;DHT22;32291;52.010;4.446;2022-12-10T00:48:19;-0.50;99.90
47521;DHT22;32291;52.010;4.446;2022-12-10T00:50:19;-0.50;99.90
47521;DHT22;32291;52.010;4.446;2022-12-10T00:52:21;-0.50;99.90
47521;DHT22;32291;52.010;4.446;2022-12-10T00:54:22;-0.50;99.90
47521;DHT22;32291;52.010;4.446;2022-12-10T00:56:28;-0.50;99.90
47521;DHT22;32291;52.010;4.446;2022-12-10T00:58:30;-0.60;99.90
47521;DHT22;32291;52.010;4.446;2022-12-10T01:00:31;-0.50;99.90
47521;DHT22;32291;52.010;4.446;2022-12-10T01:02:42;-0.60;99.90
47521;DHT22;32291;52.010;4.446;2022-12-10T01:04:43;-0.50;99.90
47521;DHT22;32291;52.010;4.446;2022-12-10T01:06:46;0.40;99.90
47521;DHT22;32291;52.010;4.446;2022-12-10T01:08:48;-0.50;99.90
47521;DHT22;32291;52.010;4.446;2022-12-10T01:10:53;-0.50;99.90
47521;DHT22;32291;52.010;4.446;2022-12-10T01:12:53;-0.40;99.90
47521;DHT22;32291;52.010;4.446;2022-12-10T01:14:54;-0.30;99.90
47521;DHT22;32291;52.010;4.446;2022-12-10T01:17:02;-0.30;99.90
47521;DHT22;32291;52.010;4.446;2022-12-10T01:19:03;-0.20;99.90
47521;DHT22;32291;52.010;4.446;2022-12-10T01:21:07;-0.20;99.90
47521;DHT22;32291;52.010;4.446;2022-12-10T01:23:08;-0.20;99.90
47521;DHT22;32291;52.010;4.446;2022-12-10T01:25:08;-0.10;99.90
47521;DHT22;32291;52.010;4.446;2022-12-10T01:27:11;1.30;99.90
47521;DHT22;32291;52.010;4.446;2022-12-10T01:29:12;0.00;99.90
47521;DHT22;32291;52.010;4.446;2022-12-10T01:33:17;0.20;99.90
47521;DHT22;32291;52.010;4.446;2022-12-10T01:35:18;0.20;99.90
47521;DHT22;32291;52.010;4.446;2022-12-10T01:37:20;0.20;99.90
47521;DHT22;32291;52.010;4.446;2022-12-10T01:39:22;0.30;99.90
47521;DHT22;32291;52.010;4.446;2022-12-10T01:41:26;1.60;99.90
47521;DHT22;32291;52.010;4.446;2022-12-10T01:43:27;1.50;99.90
47521;DHT22;32291;52.010;4.446;2022-12-10T01:45:25;0.40;99.90
47521;DHT22;32291;52.010;4.446;2022-12-10T01:47:27;0.50;99.90
47521;DHT22;32291;52.010;4.446;2022-12-10T01:49:38;1.60;99.90
47521;DHT22;32291;52.010;4.446;2022-12-10T01:51:40;0.50;99.90
47521;DHT22;32291;52.010;4.446;2022-12-10T01:53:41;1.00;99.90
47521;DHT22;32291;52.010;4.446;2022-12-10T01:55:44;0.50;99.90
47521;DHT22;32291;52.010;4.446;2022-12-10T01:57:46;1.70;99.90
47521;DHT22;32291;52.010;4.446;2022-12-10T01:59:56;0.60;99.90
47521;DHT22;32291;52.010;4.446;2022-12-10T02:06:56;0.60;99.90
47521;DHT22;32291;52.010;4.446;2022-12-10T02:11:38;0.60;99.90
47521;DHT22;32291;52.010;4.446;2022-12-10T02:16:08;0.80;99.90
47521;DHT22;32291;52.010;4.446;2022-12-10T02:18:29;0.60;99.90
47521;DHT22;32291;52.010;4.446;2022-12-10T02:20:41;0.60;99.90
47521;DHT22;32291;52.010;4.446;2022-12-10T02:22:48;0.60;99.90
47521;DHT22;32291;52.010;4.446;2022-12-10T02:24:52;0.60;99.90
47521;DHT22;32291;52.010;4.446;2022-12-10T02:27:00;1.10;99.90
47521;DHT22;32291;52.010;4.446;2022-12-10T02:31:05;0.70;99.90
47521;DHT22;32291;52.010;4.446;2022-12-10T02:33:10;0.80;99.90
47521;DHT22;32291;52.010;4.446;2022-12-10T02:35:20;2.10;99.90
47521;DHT22;32291;52.010;4.446;2022-12-10T02:37:30;0.70;99.90
47521;DHT22;32291;52.010;4.446;2022-12-10T02:39:38;0.70;99.90
47521;DHT22;32291;52.010;4.446;2022-12-10T02:41:41;1.00;99.90
47521;DHT22;32291;52.010;4.446;2022-12-10T02:43:46;0.70;99.90
47521;DHT22;32291;52.010;4.446;2022-12-10T02:45:50;1.50;99.90
47521;DHT22;32291;52.010;4.446;2022-12-10T02:47:56;0.70;99.90
47521;DHT22;32291;52.010;4.446;2022-12-10T02:49:58;0.70;99.90
47521;DHT22;32291;52.010;4.446;2022-12-10T02:52:05;0.90;99.90
47521;DHT22;32291;52.010;4.446;2022-12-10T02:54:31;0.70;99.90
47521;DHT22;32291;52.010;4.446;2022-12-10T02:59:16;0.70;99.90
47521;DHT22;32291;52.010;4.446;2022-12-10T03:03:25;0.70;99.90
47521;DHT22;32291;52.010;4.446;2022-12-10T03:08:10;2.10;99.90
47521;DHT22;32291;52.010;4.446;2022-12-10T03:12:33;0.70;99.90
47521;DHT22;32291;52.010;4.446;2022-12-10T03:14:38;0.70;99.90
47521;DHT22;32291;52.010;4.446;2022-12-10T03:16:51;0.60;99.90
47521;DHT22;32291;52.010;4.446;2022-12-10T03:19:00;0.60;99.90
47521;DHT22;32291;52.010;4.446;2022-12-10T03:21:05;0.70;99.90
47521;DHT22;32291;52.010;4.446;2022-12-10T03:23:11;0.70;99.90
47521;DHT22;32291;52.010;4.446;2022-12-10T03:25:19;0.70;99.90
47521;DHT22;32291;52.010;4.446;2022-12-10T03:27:23;0.70;99.90
47521;DHT22;32291;52.010;4.446;2022-12-10T03:29:31;0.70;99.90
47521;DHT22;32291;52.010;4.446;2022-12-10T03:31:03;0.70;99.90
47521;DHT22;32291;52.010;4.446;2022-12-10T03:32:54;0.70;99.90
47521;DHT22;32291;52.010;4.446;2022-12-10T03:34:22;0.90;99.90
47521;DHT22;32291;52.010;4.446;2022-12-10T03:35:49;0.80;99.90
47521;DHT22;32291;52.010;4.446;2022-12-10T03:37:29;0.70;99.90
47521;DHT22;32291;52.010;4.446;2022-12-10T03:39:26;0.70;99.90
47521;DHT22;32291;52.010;4.446;2022-12-10T03:41:27;0.70;99.90
47521;DHT22;32291;52.010;4.446;2022-12-10T03:43:27;0.70;99.90
47521;DHT22;32291;52.010;4.446;2022-12-10T03:45:35;0.80;99.90
47521;DHT22;32291;52.010;4.446;2022-12-10T03:47:36;0.80;99.90
47521;DHT22;32291;52.010;4.446;2022-12-10T03:49:36;1.90;99.90
47521;DHT22;32291;52.010;4.446;2022-12-10T03:51:36;0.80;99.90
47521;DHT22;32291;52.010;4.446;2022-12-10T03:53:37;0.80;99.90
47521;DHT22;32291;52.010;4.446;2022-12-10T03:55:38;0.90;99.90
47521;DHT22;32291;52.010;4.446;2022-12-10T03:57:38;0.80;99.90
47521;DHT22;32291;52.010;4.446;2022-12-10T03:59:38;0.80;99.90
47521;DHT22;32291;52.010;4.446;2022-12-10T04:01:39;2.10;99.90
47521;DHT22;32291;52.010;4.446;2022-12-10T04:03:41;0.70;99.90
47521;DHT22;32291;52.010;4.446;2022-12-10T04:05:42;0.80;99.90
47521;DHT22;32291;52.010;4.446;2022-12-10T04:07:42;0.70;99.90
47521;DHT22;32291;52.010;4.446;2022-12-10T04:09:43;0.90;99.90
47521;DHT22;32291;52.010;4.446;2022-12-10T04:11:43;0.80;99.90
47521;DHT22;32291;52.010;4.446;2022-12-10T04:13:44;0.90;99.90
47521;DHT22;32291;52.010;4.446;2022-12-10T04:16:03;1.80;99.90
47521;DHT22;32291;52.010;4.446;2022-12-10T04:18:04;0.70;99.90
47521;DHT22;32291;52.010;4.446;2022-12-10T04:20:06;0.70;99.90
47521;DHT22;32291;52.010;4.446;2022-12-10T04:22:25;0.70;99.90
47521;DHT22;32291;52.010;4.446;2022-12-10T04:24:43;0.80;99.90
47521;DHT22;32291;52.010;4.446;2022-12-10T04:27:06;1.40;99.90
47521;DHT22;32291;52.010;4.446;2022-12-10T04:29:09;0.80;99.90
47521;DHT22;32291;52.010;4.446;2022-12-10T04:31:11;0.80;99.90
47521;DHT22;32291;52.010;4.446;2022-12-10T04:33:11;0.90;99.90
47521;DHT22;32291;52.010;4.446;2022-12-10T04:35:12;0.80;99.90
47521;DHT22;32291;52.010;4.446;2022-12-10T04:37:12;0.80;99.90
47521;DHT22;32291;52.010;4.446;2022-12-10T04:39:13;2.10;99.90
47521;DHT22;32291;52.010;4.446;2022-12-10T04:41:13;0.80;99.90
47521;DHT22;32291;52.010;4.446;2022-12-10T04:43:13;0.90;99.90
47521;DHT22;32291;52.010;4.446;2022-12-10T04:45:14;0.90;99.90
47521;DHT22;32291;52.010;4.446;2022-12-10T04:47:15;0.90;99.90
47521;DHT22;32291;52.010;4.446;2022-12-10T04:49:15;0.80;99.90
47521;DHT22;32291;52.010;4.446;2022-12-10T04:51:16;0.90;99.90
47521;DHT22;32291;52.010;4.446;2022-12-10T04:53:16;0.90;99.90
47521;DHT22;32291;52.010;4.446;2022-12-10T04:55:17;0.80;99.90
47521;DHT22;32291;52.010;4.446;2022-12-10T04:57:17;0.80;99.90
47521;DHT22;32291;52.010;4.446;2022-12-10T04:59:18;0.80;99.90
47521;DHT22;32291;52.010;4.446;2022-12-10T05:01:18;0.80;99.90
47521;DHT22;32291;52.010;4.446;2022-12-10T05:03:19;0.80;99.90
47521;DHT22;32291;52.010;4.446;2022-12-10T05:05:20;0.90;99.90
47521;DHT22;32291;52.010;4.446;2022-12-10T05:07:20;0.90;99.90
47521;DHT22;32291;52.010;4.446;2022-12-10T05:09:20;0.80;99.90
47521;DHT22;32291;52.010;4.446;2022-12-10T05:11:23;0.80;99.90
47521;DHT22;32291;52.010;4.446;2022-12-10T05:13:23;0.80;99.90
47521;DHT22;32291;52.010;4.446;2022-12-10T05:15:23;0.90;99.90
47521;DHT22;32291;52.010;4.446;2022-12-10T05:17:25;0.90;99.90
47521;DHT22;32291;52.010;4.446;2022-12-10T05:19:25;1.10;99.90
47521;DHT22;32291;52.010;4.446;2022-12-10T05:21:27;0.90;99.90
47521;DHT22;32291;52.010;4.446;2022-12-10T05:23:50;3.00;99.90
47521;DHT22;32291;52.010;4.446;2022-12-10T05:26:19;0.90;99.90
47521;DHT22;32291;52.010;4.446;2022-12-10T05:28:19;0.90;99.90
47521;DHT22;32291;52.010;4.446;2022-12-10T05:30:20;0.90;99.90
47521;DHT22;32291;52.010;4.446;2022-12-10T05:32:21;0.80;99.90
47521;DHT22;32291;52.010;4.446;2022-12-10T05:34:21;0.80;99.90
47521;DHT22;32291;52.010;4.446;2022-12-10T05:36:24;1.70;99.90
47521;DHT22;32291;52.010;4.446;2022-12-10T05:38:25;0.90;99.90
47521;DHT22;32291;52.010;4.446;2022-12-10T05:40:26;1.90;99.90
47521;DHT22;32291;52.010;4.446;2022-12-10T05:42:30;0.90;99.90
47521;DHT22;32291;52.010;4.446;2022-12-10T05:44:31;0.80;99.90
47521;DHT22;32291;52.010;4.446;2022-12-10T05:46:34;0.80;99.90
47521;DHT22;32291;52.010;4.446;2022-12-10T05:48:35;1.40;99.90
47521;DHT22;32291;52.010;4.446;2022-12-10T05:50:35;-0.10;99.90
47521;DHT22;32291;52.010;4.446;2022-12-10T05:52:36;0.90;99.90
47521;DHT22;32291;52.010;4.446;2022-12-10T05:54:37;0.90;99.90
47521;DHT22;32291;52.010;4.446;2022-12-10T05:56:37;1.80;99.90
47521;DHT22;32291;52.010;4.446;2022-12-10T05:58:40;0.90;99.90
47521;DHT22;32291;52.010;4.446;2022-12-10T06:00:41;0.90;99.90
47521;DHT22;32291;52.010;4.446;2022-12-10T06:02:41;0.90;99.90
47521;DHT22;32291;52.010;4.446;2022-12-10T06:04:41;1.10;99.90
47521;DHT22;32291;52.010;4.446;2022-12-10T06:06:42;0.80;99.90
47521;DHT22;32291;52.010;4.446;2022-12-10T06:08:43;0.80;99.90
47521;DHT22;32291;52.010;4.446;2022-12-10T06:10:43;0.80;99.90
47521;DHT22;32291;52.010;4.446;2022-12-10T06:12:43;0.90;99.90
47521;DHT22;32291;52.010;4.446;2022-12-10T06:14:44;0.90;99.90
47521;DHT22;32291;52.010;4.446;2022-12-10T06:16:44;2.00;99.90
47521;DHT22;32291;52.010;4.446;2022-12-10T06:18:44;0.80;99.90
47521;DHT22;32291;52.010;4.446;2022-12-10T06:20:45;2.10;99.90
47521;DHT22;32291;52.010;4.446;2022-12-10T06:22:45;0.90;99.90
47521;DHT22;32291;52.010;4.446;2022-12-10T06:24:46;0.90;99.90
47521;DHT22;32291;52.010;4.446;2022-12-10T06:26:46;0.90;99.90
47521;DHT22;32291;52.010;4.446;2022-12-10T06:28:47;0.90;99.90
47521;DHT22;32291;52.010;4.446;2022-12-10T06:30:48;0.90;99.90
47521;DHT22;32291;52.010;4.446;2022-12-10T06:32:48;0.90;99.90
47521;DHT22;32291;52.010;4.446;2022-12-10T06:34:49;0.90;99.90
47521;DHT22;32291;52.010;4.446;2022-12-10T06:36:49;2.20;99.90
47521;DHT22;32291;52.010;4.446;2022-12-10T06:38:50;0.80;99.90
47521;DHT22;32291;52.010;4.446;2022-12-10T06:40:53;0.80;99.90
47521;DHT22;32291;52.010;4.446;2022-12-10T06:42:54;0.80;99.90
47521;DHT22;32291;52.010;4.446;2022-12-10T06:44:54;0.80;99.90
47521;DHT22;32291;52.010;4.446;2022-12-10T06:46:54;0.80;99.90
47521;DHT22;32291;52.010;4.446;2022-12-10T06:48:54;0.80;99.90
47521;DHT22;32291;52.010;4.446;2022-12-10T06:50:55;0.80;99.90
47521;DHT22;32291;52.010;4.446;2022-12-10T06:52:56;0.80;99.90
47521;DHT22;32291;52.010;4.446;2022-12-10T06:54:56;1.60;99.90
47521;DHT22;32291;52.010;4.446;2022-12-10T06:56:58;0.80;99.90
47521;DHT22;32291;52.010;4.446;2022-12-10T06:58:59;0.80;99.90
47521;DHT22;32291;52.010;4.446;2022-12-10T07:01:10;0.80;99.90
47521;DHT22;32291;52.010;4.446;2022-12-10T07:03:13;0.80;99.90
47521;DHT22;32291;52.010;4.446;2022-12-10T07:05:14;0.70;99.90
47521;DHT22;32291;52.010;4.446;2022-12-10T07:07:00;0.70;99.90
47521;DHT22;32291;52.010;4.446;2022-12-10T07:08:59;0.80;99.90
47521;DHT22;32291;52.010;4.446;2022-12-10T07:11:06;0.70;99.90
47521;DHT22;32291;52.010;4.446;2022-12-10T07:13:07;0.80;99.90
47521;DHT22;32291;52.010;4.446;2022-12-10T07:15:07;0.80;99.90
47521;DHT22;32291;52.010;4.446;2022-12-10T07:17:19;0.80;99.90
47521;DHT22;32291;52.010;4.446;2022-12-10T07:19:19;1.90;99.90
47521;DHT22;32291;52.010;4.446;2022-12-10T07:21:22;0.70;99.90
47521;DHT22;32291;52.010;4.446;2022-12-10T07:23:23;1.20;99.90
47521;DHT22;32291;52.010;4.446;2022-12-10T07:25:24;1.80;99.90
47521;DHT22;32291;52.010;4.446;2022-12-10T07:27:29;1.40;99.90
47521;DHT22;32291;52.010;4.446;2022-12-10T07:29:07;0.80;99.90
47521;DHT22;32291;52.010;4.446;2022-12-10T07:31:09;0.80;99.90
47521;DHT22;32291;52.010;4.446;2022-12-10T07:32:49;0.70;99.90
47521;DHT22;32291;52.010;4.446;2022-12-10T07:34:50;1.80;99.90
47521;DHT22;32291;52.010;4.446;2022-12-10T07:36:51;0.70;99.90
47521;DHT22;32291;52.010;4.446;2022-12-10T07:38:52;0.80;99.90
47521;DHT22;32291;52.010;4.446;2022-12-10T07:40:54;0.70;99.90
47521;DHT22;32291;52.010;4.446;2022-12-10T07:42:52;0.70;99.90
47521;DHT22;32291;52.010;4.446;2022-12-10T07:44:53;0.80;99.90
47521;DHT22;32291;52.010;4.446;2022-12-10T07:46:45;0.80;99.90
47521;DHT22;32291;52.010;4.446;2022-12-10T07:48:23;0.70;99.90
47521;DHT22;32291;52.010;4.446;2022-12-10T07:50:23;0.80;99.90
47521;DHT22;32291;52.010;4.446;2022-12-10T07:52:00;0.80;99.90
47521;DHT22;32291;52.010;4.446;2022-12-10T07:53:34;1.80;99.90
47521;DHT22;32291;52.010;4.446;2022-12-10T07:55:34;0.80;99.90
47521;DHT22;32291;52.010;4.446;2022-12-10T07:57:34;0.80;99.90
47521;DHT22;32291;52.010;4.446;2022-12-10T07:59:35;1.10;99.90
47521;DHT22;32291;52.010;4.446;2022-12-10T08:01:35;0.80;99.90
47521;DHT22;32291;52.010;4.446;2022-12-10T08:03:36;0.80;99.90
47521;DHT22;32291;52.010;4.446;2022-12-10T08:05:39;0.80;99.90
47521;DHT22;32291;52.010;4.446;2022-12-10T08:07:40;0.80;99.90
47521;DHT22;32291;52.010;4.446;2022-12-10T08:09:36;0.80;99.90
47521;DHT22;32291;52.010;4.446;2022-12-10T08:11:37;0.90;99.90
47521;DHT22;32291;52.010;4.446;2022-12-10T08:13:38;0.90;99.90
47521;DHT22;32291;52.010;4.446;2022-12-10T08:15:33;0.90;99.90
47521;DHT22;32291;52.010;4.446;2022-12-10T08:17:35;2.00;99.90
47521;DHT22;32291;52.010;4.446;2022-12-10T08:19:35;1.60;99.90
47521;DHT22;32291;52.010;4.446;2022-12-10T08:21:36;0.90;99.90
47521;DHT22;32291;52.010;4.446;2022-12-10T08:23:31;1.00;99.90
47521;DHT22;32291;52.010;4.446;2022-12-10T08:25:04;1.00;99.90
47521;DHT22;32291;52.010;4.446;2022-12-10T08:26:40;1.00;99.90
47521;DHT22;32291;52.010;4.446;2022-12-10T08:28:41;1.00;99.90
47521;DHT22;32291;52.010;4.446;2022-12-10T08:30:38;1.00;99.90
47521;DHT22;32291;52.010;4.446;2022-12-10T08:32:14;1.20;99.90
47521;DHT22;32291;52.010;4.446;2022-12-10T08:34:16;1.10;99.90
47521;DHT22;32291;52.010;4.446;2022-12-10T08:36:17;1.00;99.90
47521;DHT22;32291;52.010;4.446;2022-12-10T08:38:18;1.00;99.90
47521;DHT22;32291;52.010;4.446;2022-12-10T08:40:18;1.00;99.90
47521;DHT22;32291;52.010;4.446;2022-12-10T08:42:13;1.60;99.90
47521;DHT22;32291;52.010;4.446;2022-12-10T08:44:01;1.00;99.90
47521;DHT22;32291;52.010;4.446;2022-12-10T08:46:03;1.00;99.90
47521;DHT22;32291;52.010;4.446;2022-12-10T08:47:30;1.00;99.90
47521;DHT22;32291;52.010;4.446;2022-12-10T08:49:25;2.20;99.90
47521;DHT22;32291;52.010;4.446;2022-12-10T08:51:26;1.00;99.90
47521;DHT22;32291;52.010;4.446;2022-12-10T08:53:20;1.20;99.90
47521;DHT22;32291;52.010;4.446;2022-12-10T08:55:20;1.00;99.90
47521;DHT22;32291;52.010;4.446;2022-12-10T08:57:07;0.90;99.90
47521;DHT22;32291;52.010;4.446;2022-12-10T08:59:08;1.90;99.90
47521;DHT22;32291;52.010;4.446;2022-12-10T09:01:15;1.00;99.90
47521;DHT22;32291;52.010;4.446;2022-12-10T09:03:16;1.00;99.90
47521;DHT22;32291;52.010;4.446;2022-12-10T09:05:17;1.00;99.90
47521;DHT22;32291;52.010;4.446;2022-12-10T09:07:19;2.70;99.90
47521;DHT22;32291;52.010;4.446;2022-12-10T09:09:19;1.00;99.90
47521;DHT22;32291;52.010;4.446;2022-12-10T09:11:16;1.00;99.90
47521;DHT22;32291;52.010;4.446;2022-12-10T09:13:16;1.00;99.90
47521;DHT22;32291;52.010;4.446;2022-12-10T09:15:17;1.90;99.90
47521;DHT22;32291;52.010;4.446;2022-12-10T09:17:17;0.90;99.90
47521;DHT22;32291;52.010;4.446;2022-12-10T09:19:18;1.40;99.90
47521;DHT22;32291;52.010;4.446;2022-12-10T09:21:19;1.90;99.90
47521;DHT22;32291;52.010;4.446;2022-12-10T09:23:19;1.00;99.90
47521;DHT22;32291;52.010;4.446;2022-12-10T09:25:20;1.00;99.90
47521;DHT22;32291;52.010;4.446;2022-12-10T09:27:21;1.00;99.90
47521;DHT22;32291;52.010;4.446;2022-12-10T09:29:19;1.00;99.90
47521;DHT22;32291;52.010;4.446;2022-12-10T09:31:19;1.40;99.90
47521;DHT22;32291;52.010;4.446;2022-12-10T09:33:18;1.10;99.90
47521;DHT22;32291;52.010;4.446;2022-12-10T09:35:09;1.00;99.90
47521;DHT22;32291;52.010;4.446;2022-12-10T09:36:41;1.50;99.90
47521;DHT22;32291;52.010;4.446;2022-12-10T09:38:43;1.40;99.90
47521;DHT22;32291;52.010;4.446;2022-12-10T09:40:38;1.00;99.90
47521;DHT22;32291;52.010;4.446;2022-12-10T09:42:58;1.10;99.90
47521;DHT22;32291;52.010;4.446;2022-12-10T09:46:59;1.10;99.90
47521;DHT22;32291;52.010;4.446;2022-12-10T09:51:31;1.10;99.90
47521;DHT22;32291;52.010;4.446;2022-12-10T09:53:38;1.20;99.90
47521;DHT22;32291;52.010;4.446;2022-12-10T09:55:44;1.30;99.90
47521;DHT22;32291;52.010;4.446;2022-12-10T09:57:50;1.40;99.90
47521;DHT22;32291;52.010;4.446;2022-12-10T09:59:52;1.40;99.90
47521;DHT22;32291;52.010;4.446;2022-12-10T10:04:16;1.40;99.90
47521;DHT22;32291;52.010;4.446;2022-12-10T10:05:38;1.40;99.90
47521;DHT22;32291;52.010;4.446;2022-12-10T10:07:51;1.30;99.90
47521;DHT22;32291;52.010;4.446;2022-12-10T10:09:46;1.20;99.90
47521;DHT22;32291;52.010;4.446;2022-12-10T10:11:32;2.60;99.90
47521;DHT22;32291;52.010;4.446;2022-12-10T10:15:34;1.40;99.90
47521;DHT22;32291;52.010;4.446;2022-12-10T10:17:35;1.00;99.90
47521;DHT22;32291;52.010;4.446;2022-12-10T10:19:40;1.20;99.90
47521;DHT22;32291;52.010;4.446;2022-12-10T10:21:31;1.00;99.90
47521;DHT22;32291;52.010;4.446;2022-12-10T10:22:56;1.00;99.90
47521;DHT22;32291;52.010;4.446;2022-12-10T10:24:35;1.10;99.90
47521;DHT22;32291;52.010;4.446;2022-12-10T10:26:36;1.00;99.90
47521;DHT22;32291;52.010;4.446;2022-12-10T10:28:38;1.10;99.90
47521;DHT22;32291;52.010;4.446;2022-12-10T10:30:20;2.10;99.90
47521;DHT22;32291;52.010;4.446;2022-12-10T10:31:42;1.10;99.90
47521;DHT22;32291;52.010;4.446;2022-12-10T10:33:31;1.10;99.90
47521;DHT22;32291;52.010;4.446;2022-12-10T10:34:55;1.00;99.90
47521;DHT22;32291;52.010;4.446;2022-12-10T10:36:00;1.00;99.90
47521;DHT22;32291;52.010;4.446;2022-12-10T10:38:06;1.00;99.90
47521;DHT22;32291;52.010;4.446;2022-12-10T10:40:28;2.00;99.90
47521;DHT22;32291;52.010;4.446;2022-12-10T10:42:37;1.00;99.90
47521;DHT22;32291;52.010;4.446;2022-12-10T10:44:36;1.60;99.90
47521;DHT22;32291;52.010;4.446;2022-12-10T10:46:28;1.00;99.90
47521;DHT22;32291;52.010;4.446;2022-12-10T10:47:47;1.00;99.90
47521;DHT22;32291;52.010;4.446;2022-12-10T10:49:32;1.00;99.90
47521;DHT22;32291;52.010;4.446;2022-12-10T10:50:53;0.90;99.90
47521;DHT22;32291;52.010;4.446;2022-12-10T10:52:16;1.00;99.90
47521;DHT22;32291;52.010;4.446;2022-12-10T10:54:58;1.00;99.90
47521;DHT22;32291;52.010;4.446;2022-12-10T10:57:29;1.10;99.90
47521;DHT22;32291;52.010;4.446;2022-12-10T11:00:33;1.10;99.90
47521;DHT22;32291;52.010;4.446;2022-12-10T11:03:49;1.50;99.90
47521;DHT22;32291;52.010;4.446;2022-12-10T11:05:29;1.20;99.90
47521;DHT22;32291;52.010;4.446;2022-12-10T11:06:55;1.20;99.90
47521;DHT22;32291;52.010;4.446;2022-12-10T11:08:19;1.20;99.90
47521;DHT22;32291;52.010;4.446;2022-12-10T11:09:34;1.20;99.90
47521;DHT22;32291;52.010;4.446;2022-12-10T11:11:03;1.20;99.90
47521;DHT22;32291;52.010;4.446;2022-12-10T11:12:28;1.30;99.90
47521;DHT22;32291;52.010;4.446;2022-12-10T11:13:38;1.20;99.90
47521;DHT22;32291;52.010;4.446;2022-12-10T11:17:34;1.30;99.90
47521;DHT22;32291;52.010;4.446;2022-12-10T11:19:01;1.40;99.90
47521;DHT22;32291;52.010;4.446;2022-12-10T11:21:30;1.40;99.90
47521;DHT22;32291;52.010;4.446;2022-12-10T11:22:35;1.40;99.90
47521;DHT22;32291;52.010;4.446;2022-12-10T11:23:54;1.50;99.90
47521;DHT22;32291;52.010;4.446;2022-12-10T11:24:58;1.50;99.90
47521;DHT22;32291;52.010;4.446;2022-12-10T11:28:01;1.50;99.90
47521;DHT22;32291;52.010;4.446;2022-12-10T11:33:38;1.70;99.90
47521;DHT22;32291;52.010;4.446;2022-12-10T11:36:23;1.70;99.90
47521;DHT22;32291;52.010;4.446;2022-12-10T11:38:50;1.70;99.90
47521;DHT22;32291;52.010;4.446;2022-12-10T11:43:18;1.60;99.90
47521;DHT22;32291;52.010;4.446;2022-12-10T11:47:21;1.60;99.90
47521;DHT22;32291;52.010;4.446;2022-12-10T11:49:40;1.70;99.90
47521;DHT22;32291;52.010;4.446;2022-12-10T12:07:18;1.70;99.90
47521;DHT22;32291;52.010;4.446;2022-12-10T12:08:49;1.70;99.90
47521;DHT22;32291;52.010;4.446;2022-12-10T12:10:26;1.60;99.90
47521;DHT22;32291;52.010;4.446;2022-12-10T12:12:02;1.60;99.90
47521;DHT22;32291;52.010;4.446;2022-12-10T12:13:19;1.70;99.90
47521;DHT22;32291;52.010;4.446;2022-12-10T12:15:28;1.60;99.90
47521;DHT22;32291;52.010;4.446;2022-12-10T12:17:47;1.50;99.90
47521;DHT22;32291;52.010;4.446;2022-12-10T12:19:58;1.60;99.90
47521;DHT22;32291;52.010;4.446;2022-12-10T12:21:49;1.60;99.90
47521;DHT22;32291;52.010;4.446;2022-12-10T12:24:35;1.60;99.90
47521;DHT22;32291;52.010;4.446;2022-12-10T12:25:51;1.50;99.90
47521;DHT22;32291;52.010;4.446;2022-12-10T12:27:35;2.70;99.90
47521;DHT22;32291;52.010;4.446;2022-12-10T12:28:51;2.40;99.90
47521;DHT22;32291;52.010;4.446;2022-12-10T12:30:19;1.60;99.90
47521;DHT22;32291;52.010;4.446;2022-12-10T12:31:35;1.60;99.90
47521;DHT22;32291;52.010;4.446;2022-12-10T12:36:05;1.60;99.90
47521;DHT22;32291;52.010;4.446;2022-12-10T12:37:37;1.60;99.90
47521;DHT22;32291;52.010;4.446;2022-12-10T12:40:25;1.60;99.90
47521;DHT22;32291;52.010;4.446;2022-12-10T12:42:30;1.70;99.90
47521;DHT22;32291;52.010;4.446;2022-12-10T12:46:40;2.00;99.90
47521;DHT22;32291;52.010;4.446;2022-12-10T12:48:19;1.70;99.90
47521;DHT22;32291;52.010;4.446;2022-12-10T12:49:44;1.80;99.90
47521;DHT22;32291;52.010;4.446;2022-12-10T12:50:57;1.80;99.90
47521;DHT22;32291;52.010;4.446;2022-12-10T12:53:41;1.80;99.90
47521;DHT22;32291;52.010;4.446;2022-12-10T12:54:46;2.00;99.90
47521;DHT22;32291;52.010;4.446;2022-12-10T13:00:14;3.20;99.90
47521;DHT22;32291;52.010;4.446;2022-12-10T13:04:22;1.70;99.90
47521;DHT22;32291;52.010;4.446;2022-12-10T13:05:33;2.60;99.90
47521;DHT22;32291;52.010;4.446;2022-12-10T13:07:48;2.10;99.90
47521;DHT22;32291;52.010;4.446;2022-12-10T13:08:45;1.70;99.90
47521;DHT22;32291;52.010;4.446;2022-12-10T13:11:46;1.70;99.90
47521;DHT22;32291;52.010;4.446;2022-12-10T13:13:27;3.20;99.90
47521;DHT22;32291;52.010;4.446;2022-12-10T13:15:00;1.70;99.90
47521;DHT22;32291;52.010;4.446;2022-12-10T13:21:35;1.60;99.90
47521;DHT22;32291;52.010;4.446;2022-12-10T13:24:46;2.50;99.90
47521;DHT22;32291;52.010;4.446;2022-12-10T13:26:02;1.60;99.90
47521;DHT22;32291;52.010;4.446;2022-12-10T13:28:49;1.70;99.90
47521;DHT22;32291;52.010;4.446;2022-12-10T13:32:22;1.90;99.90
47521;DHT22;32291;52.010;4.446;2022-12-10T13:34:05;1.90;99.90
47521;DHT22;32291;52.010;4.446;2022-12-10T13:35:28;2.00;99.90
47521;DHT22;32291;52.010;4.446;2022-12-10T13:38:22;2.00;99.90
47521;DHT22;32291;52.010;4.446;2022-12-10T13:39:35;2.10;99.90
47521;DHT22;32291;52.010;4.446;2022-12-10T13:40:57;2.10;99.90
47521;DHT22;32291;52.010;4.446;2022-12-10T13:42:30;3.00;99.90
47521;DHT22;32291;52.010;4.446;2022-12-10T13:43:59;2.20;99.90